createdAt,value
2022-10-08T00:01:09.231Z,2.20
2022-10-08T00:03:39.294Z,2.10
2022-10-08T00:06:22.807Z,1.80
2022-10-08T00:09:08.634Z,1.63
2022-10-08T00:11:39.946Z,2.13
2022-10-08T00:14:07.837Z,1.60
2022-10-08T00:16:37.982Z,1.83
2022-10-08T00:19:11.344Z,1.67
2022-10-08T00:21:39.725Z,1.55
2022-10-08T00:24:07.968Z,1.63
2022-10-08T00:26:41.153Z,1.42
2022-10-08T00:29:12.772Z,1.52
2022-10-08T00:31:41.934Z,1.33
2022-10-08T00:34:11.279Z,1.55
2022-10-08T00:36:39.981Z,1.55
2022-10-08T00:39:09.508Z,1.40
2022-10-08T00:41:38.487Z,1.45
2022-10-08T00:44:43.040Z,1.50
2022-10-08T00:47:31.593Z,1.65
2022-10-08T00:50:01.706Z,1.20
2022-10-08T00:52:33.763Z,1.35
2022-10-08T00:55:02.211Z,1.25
2022-10-08T00:57:29.670Z,1.58
2022-10-08T00:59:56.658Z,1.23
2022-10-08T01:02:23.468Z,1.10
2022-10-08T01:04:50.440Z,1.23
2022-10-08T01:07:32.359Z,1.50
2022-10-08T01:10:15.158Z,1.95
2022-10-08T01:12:52.707Z,1.15
2022-10-08T01:15:44.578Z,1.05
2022-10-08T01:18:36.428Z,1.50
2022-10-08T01:21:24.567Z,1.23
2022-10-08T01:24:47.613Z,1.50
2022-10-08T01:27:38.754Z,1.52
2022-10-08T01:30:09.683Z,1.38
2022-10-08T01:32:56.241Z,1.60
2022-10-08T01:35:34.500Z,1.27
2022-10-08T01:38:06.996Z,1.38
2022-10-08T01:40:36.492Z,1.67
2022-10-08T01:43:07.964Z,0.93
2022-10-08T01:45:40.054Z,1.42
2022-10-08T01:48:12.628Z,1.80
2022-10-08T01:50:52.656Z,1.80
2022-10-08T01:53:21.293Z,2.00
2022-10-08T01:55:51.411Z,1.95
2022-10-08T01:58:28.935Z,2.10
2022-10-08T02:00:56.682Z,1.23
2022-10-08T02:03:23.626Z,2.10
2022-10-08T02:05:53.436Z,2.28
2022-10-08T02:08:22.854Z,2.20
2022-10-08T02:10:49.684Z,2.22
2022-10-08T02:13:16.471Z,2.30
2022-10-08T02:16:10.659Z,2.33
2022-10-08T02:19:04.419Z,2.42
2022-10-08T02:21:32.404Z,2.60
2022-10-08T02:24:18.579Z,2.25
2022-10-08T02:26:49.792Z,2.65
2022-10-08T02:29:20.999Z,3.10
2022-10-08T02:31:52.494Z,2.75
2022-10-08T02:34:30.415Z,3.47
2022-10-08T02:37:03.670Z,2.60
2022-10-08T02:39:34.365Z,2.70
2022-10-08T02:42:05.727Z,2.65
2022-10-08T02:44:46.437Z,2.37
2022-10-08T02:47:18.112Z,2.80
2022-10-08T02:49:50.524Z,2.30
2022-10-08T02:52:20.033Z,2.40
2022-10-08T02:54:50.463Z,2.58
2022-10-08T02:57:29.611Z,2.50
2022-10-08T02:59:57.140Z,2.63
2022-10-08T03:02:43.215Z,2.08
2022-10-08T03:05:19.206Z,2.15
2022-10-08T03:07:48.417Z,2.60
2022-10-08T03:10:15.162Z,2.00
2022-10-08T03:12:42.163Z,2.25
2022-10-08T03:15:11.626Z,2.10
2022-10-08T03:17:42.577Z,2.13
2022-10-08T03:20:11.392Z,2.10
2022-10-08T03:22:38.816Z,2.85
2022-10-08T03:25:06.012Z,2.33
2022-10-08T03:27:35.301Z,2.40
2022-10-08T03:30:02.897Z,2.45
2022-10-08T03:32:29.548Z,2.50
2022-10-08T03:34:56.371Z,2.70
2022-10-08T03:37:24.142Z,2.75
2022-10-08T03:39:50.890Z,2.45
2022-10-08T03:42:17.567Z,2.50
2022-10-08T03:44:44.239Z,2.58
2022-10-08T03:47:10.899Z,2.83
2022-10-08T03:49:37.600Z,2.50
2022-10-08T03:52:04.343Z,2.55
2022-10-08T03:54:31.203Z,2.60
2022-10-08T03:56:57.853Z,2.67
2022-10-08T03:59:24.938Z,3.13
2022-10-08T04:01:51.772Z,2.38
2022-10-08T04:04:21.840Z,2.97
2022-10-08T04:06:52.054Z,2.88
2022-10-08T04:09:18.855Z,3.10
2022-10-08T04:11:45.575Z,2.40
2022-10-08T04:14:12.329Z,2.78
2022-10-08T04:16:39.084Z,2.88
2022-10-08T04:19:05.712Z,2.80
2022-10-08T04:21:32.573Z,2.70
2022-10-08T04:23:59.357Z,2.67
2022-10-08T04:26:26.112Z,2.92
2022-10-08T04:28:52.823Z,2.90
2022-10-08T04:31:23.207Z,3.45
2022-10-08T04:33:51.358Z,2.90
2022-10-08T04:36:24.622Z,2.65
2022-10-08T04:38:51.860Z,2.95
2022-10-08T04:41:23.502Z,2.92
2022-10-08T04:43:51.506Z,3.08
2022-10-08T04:46:21.204Z,2.72
2022-10-08T04:48:53.415Z,3.00
2022-10-08T04:51:23.241Z,2.83
2022-10-08T04:53:50.762Z,2.95
2022-10-08T04:56:21.213Z,2.90
2022-10-08T04:58:48.402Z,2.88
2022-10-08T05:01:18.458Z,3.35
2022-10-08T05:03:50.611Z,2.88
2022-10-08T05:06:19.383Z,2.88
2022-10-08T05:08:46.466Z,3.13
2022-10-08T05:11:14.084Z,2.90
2022-10-08T05:13:41.214Z,3.30
2022-10-08T05:16:13.526Z,2.83
2022-10-08T05:18:41.523Z,2.90
2022-10-08T05:21:10.836Z,2.97
2022-10-08T05:23:38.621Z,3.25
2022-10-08T05:26:16.471Z,2.90
2022-10-08T05:28:44.881Z,3.20
2022-10-08T05:31:11.640Z,3.13
2022-10-08T05:33:38.754Z,3.22
2022-10-08T05:36:17.613Z,3.20
2022-10-08T05:38:44.588Z,3.03
2022-10-08T05:41:17.619Z,3.13
2022-10-08T05:43:45.321Z,2.90
2022-10-08T05:46:13.002Z,3.13
2022-10-08T05:48:40.587Z,3.30
2022-10-08T05:51:13.079Z,3.10
2022-10-08T05:53:42.149Z,3.30
2022-10-08T05:56:11.221Z,3.35
2022-10-08T05:58:40.115Z,3.40
2022-10-08T06:01:21.350Z,2.97
2022-10-08T06:03:53.415Z,3.45
2022-10-08T06:06:20.527Z,2.92
2022-10-08T06:08:47.675Z,2.78
2022-10-08T06:11:14.605Z,3.15
2022-10-08T06:13:41.248Z,2.97
2022-10-08T06:16:11.077Z,3.30
2022-10-08T06:18:40.093Z,2.78
2022-10-08T06:21:09.880Z,2.80
2022-10-08T06:23:37.303Z,2.88
2022-10-08T06:26:08.912Z,2.70
2022-10-08T06:28:37.806Z,2.15
2022-10-08T06:31:06.265Z,2.35
2022-10-08T06:33:33.670Z,2.08
2022-10-08T06:36:18.312Z,2.45
2022-10-08T06:38:53.135Z,2.67
2022-10-08T06:41:20.823Z,2.70
2022-10-08T06:43:48.574Z,2.70
2022-10-08T06:46:16.160Z,2.72
2022-10-08T06:48:42.856Z,2.95
2022-10-08T06:51:14.663Z,2.35
2022-10-08T06:53:42.951Z,2.38
2022-10-08T06:56:15.426Z,2.45
2022-10-08T06:58:43.662Z,2.28
2022-10-08T07:01:14.323Z,2.50
2022-10-08T07:03:41.052Z,2.22
2022-10-08T07:06:10.519Z,2.15
2022-10-08T07:08:37.805Z,2.08
2022-10-08T07:11:10.498Z,2.05
2022-10-08T07:13:37.944Z,2.30
2022-10-08T07:16:10.237Z,2.47
2022-10-08T07:18:38.012Z,2.00
2022-10-08T07:21:05.843Z,2.05
2022-10-08T07:23:32.623Z,1.83
2022-10-08T07:26:02.503Z,1.73
2022-10-08T07:28:33.402Z,2.10
2022-10-08T07:31:05.226Z,1.98
2022-10-08T07:33:32.367Z,2.00
2022-10-08T07:36:12.167Z,1.90
2022-10-08T07:38:39.650Z,2.10
2022-10-08T07:41:07.067Z,1.88
2022-10-08T07:43:33.922Z,2.20
2022-10-08T07:46:00.864Z,1.75
2022-10-08T07:48:34.081Z,1.75
2022-10-08T07:51:12.811Z,2.40
2022-10-08T07:53:40.687Z,1.88
2022-10-08T07:56:09.210Z,1.85
2022-10-08T07:58:36.610Z,1.50
2022-10-08T08:01:05.789Z,2.38
2022-10-08T08:03:32.865Z,1.52
2022-10-08T08:06:05.022Z,1.73
2022-10-08T08:08:31.907Z,1.45
2022-10-08T08:10:59.575Z,1.83
2022-10-08T08:13:26.782Z,1.90
2022-10-08T08:15:58.054Z,1.40
2022-10-08T08:18:25.384Z,2.33
2022-10-08T08:21:06.784Z,1.58
2022-10-08T08:23:40.768Z,1.98
2022-10-08T08:26:10.480Z,1.50
2022-10-08T08:28:38.850Z,2.25
2022-10-08T08:31:16.103Z,1.27
2022-10-08T08:33:47.282Z,1.40
2022-10-08T08:36:14.188Z,1.50
2022-10-08T08:38:40.868Z,1.65
2022-10-08T08:41:20.764Z,1.45
2022-10-08T08:43:48.480Z,1.25
2022-10-08T08:46:19.251Z,2.03
2022-10-08T08:48:46.533Z,1.67
2022-10-08T08:51:13.423Z,1.60
2022-10-08T08:53:40.138Z,2.28
2022-10-08T08:56:11.202Z,1.33
2022-10-08T08:58:51.025Z,1.65
2022-10-08T09:01:36.083Z,1.52
2022-10-08T09:04:17.720Z,1.58
2022-10-08T09:06:45.532Z,1.53
2022-10-08T09:09:33.969Z,1.65
2022-10-08T09:12:14.252Z,1.30
2022-10-08T09:14:51.843Z,1.35
2022-10-08T09:17:24.978Z,1.98
2022-10-08T09:19:51.836Z,1.67
2022-10-08T09:22:39.665Z,1.73
2022-10-08T09:25:16.437Z,1.55
2022-10-08T09:27:51.602Z,1.42
2022-10-08T09:30:28.699Z,1.25
2022-10-08T09:32:58.931Z,1.90
2022-10-08T09:35:25.882Z,1.27
2022-10-08T09:37:53.042Z,1.60
2022-10-08T09:40:28.106Z,2.00
2022-10-08T09:43:11.820Z,1.52
2022-10-08T09:45:48.782Z,1.60
2022-10-08T09:48:26.971Z,1.83
2022-10-08T09:51:05.903Z,1.75
2022-10-08T09:53:40.139Z,2.17
2022-10-08T09:56:08.783Z,1.55
2022-10-08T09:58:52.759Z,1.67
2022-10-08T10:01:20.342Z,1.77
2022-10-08T10:03:55.978Z,1.60
2022-10-08T10:06:34.821Z,1.50
2022-10-08T10:09:44.672Z,1.80
2022-10-08T10:12:32.659Z,1.70
2022-10-08T10:15:33.741Z,2.10
2022-10-08T10:18:12.587Z,1.35
2022-10-08T10:20:50.661Z,1.55
2022-10-08T10:23:23.374Z,1.75
2022-10-08T10:25:57.520Z,1.77
2022-10-08T10:28:48.962Z,1.38
2022-10-08T10:32:00.046Z,1.65
2022-10-08T10:34:34.174Z,1.50
2022-10-08T10:37:21.543Z,1.60
2022-10-08T10:40:10.198Z,1.48
2022-10-08T10:42:43.040Z,1.45
2022-10-08T10:45:10.052Z,1.55
2022-10-08T10:47:36.670Z,1.20
2022-10-08T10:50:03.693Z,1.20
2022-10-08T10:52:57.820Z,1.40
2022-10-08T10:55:41.114Z,1.52
2022-10-08T10:58:18.526Z,1.40
2022-10-08T11:00:51.255Z,1.48
2022-10-08T11:03:51.811Z,1.52
2022-10-08T11:06:37.600Z,1.42
2022-10-08T11:09:40.821Z,1.65
2022-10-08T11:12:32.485Z,1.17
2022-10-08T11:15:20.899Z,1.50
2022-10-08T11:17:58.192Z,2.00
2022-10-08T11:20:46.109Z,1.38
2022-10-08T11:23:36.891Z,1.25
2022-10-08T11:26:25.397Z,1.70
2022-10-08T11:29:09.384Z,1.33
2022-10-08T11:31:42.945Z,1.75
2022-10-08T11:34:33.136Z,1.70
2022-10-08T11:37:12.963Z,1.90
2022-10-08T11:39:54.743Z,1.60
2022-10-08T11:42:39.932Z,1.02
2022-10-08T11:45:29.098Z,1.85
2022-10-08T11:47:58.258Z,1.88
2022-10-08T11:50:36.651Z,1.63
2022-10-08T11:53:15.335Z,1.70
2022-10-08T11:55:53.835Z,1.58
2022-10-08T11:58:26.212Z,2.05
2022-10-08T12:01:06.035Z,2.45
2022-10-08T12:03:38.629Z,1.83
2022-10-08T12:06:26.860Z,1.58
2022-10-08T12:09:01.107Z,2.22
2022-10-08T12:11:35.370Z,1.80
2022-10-08T12:14:11.108Z,2.10
2022-10-08T12:16:56.117Z,1.50
2022-10-08T12:20:01.749Z,1.50
2022-10-08T12:22:28.412Z,1.98
2022-10-08T12:24:59.171Z,1.92
2022-10-08T12:27:29.070Z,2.00
2022-10-08T12:30:12.221Z,1.67
2022-10-08T12:32:44.244Z,2.00
2022-10-08T12:38:02.487Z,1.75
2022-10-08T12:40:32.351Z,1.77
2022-10-08T12:43:14.412Z,1.70
2022-10-08T12:45:50.580Z,1.77
2022-10-08T12:48:38.335Z,2.00
2022-10-08T12:51:28.883Z,1.80
2022-10-08T12:53:56.902Z,1.90
2022-10-08T12:56:28.576Z,1.80
2022-10-08T12:58:59.849Z,1.75
2022-10-08T13:01:26.833Z,1.60
2022-10-08T13:04:24.779Z,1.63
2022-10-08T13:06:53.669Z,1.50
2022-10-08T13:09:28.965Z,1.60
2022-10-08T13:12:02.821Z,1.55
2022-10-08T13:14:35.622Z,1.52
2022-10-08T13:17:03.200Z,2.00
2022-10-08T13:19:38.540Z,1.58
2022-10-08T13:22:08.073Z,1.50
2022-10-08T13:24:40.537Z,1.45
2022-10-08T13:27:28.842Z,1.60
2022-10-08T13:29:56.862Z,1.15
2022-10-08T13:32:35.543Z,1.40
2022-10-08T13:35:05.055Z,1.27
2022-10-08T13:37:36.727Z,0.82
2022-10-08T13:40:12.256Z,1.70
2022-10-08T13:42:45.168Z,1.20
2022-10-08T13:45:16.683Z,1.33
2022-10-08T13:47:43.371Z,1.20
2022-10-08T13:50:10.168Z,1.73
2022-10-08T13:52:41.721Z,1.38
2022-10-08T13:55:30.458Z,1.48
2022-10-08T13:58:00.174Z,1.50
2022-10-08T14:00:29.638Z,0.70
2022-10-08T14:02:56.641Z,1.30
2022-10-08T14:05:25.009Z,1.70
2022-10-08T14:07:56.121Z,1.48
2022-10-08T14:10:22.974Z,1.27
2022-10-08T14:12:49.602Z,1.20
2022-10-08T14:15:17.381Z,1.40
2022-10-08T14:17:44.754Z,1.00
2022-10-08T14:20:12.550Z,1.48
2022-10-08T14:22:39.208Z,1.80
2022-10-08T14:25:25.961Z,1.27
2022-10-08T14:27:52.799Z,1.52
2022-10-08T14:30:19.684Z,1.45
2022-10-08T14:32:46.255Z,1.35
2022-10-08T14:35:13.214Z,1.48
2022-10-08T14:37:40.382Z,1.27
2022-10-08T14:40:08.632Z,1.52
2022-10-08T14:42:35.410Z,1.77
2022-10-08T14:45:02.207Z,1.45
2022-10-08T14:47:28.977Z,1.30
2022-10-08T14:49:55.596Z,1.23
2022-10-08T14:52:22.256Z,1.40
2022-10-08T14:54:48.899Z,1.55
2022-10-08T14:57:15.761Z,1.75
2022-10-08T14:59:42.581Z,1.67
2022-10-08T15:02:12.642Z,2.00
2022-10-08T15:04:39.818Z,1.10
2022-10-08T15:07:06.455Z,1.65
2022-10-08T15:09:34.464Z,1.48
2022-10-08T15:12:01.009Z,1.13
2022-10-08T15:14:27.732Z,1.80
2022-10-08T15:16:54.441Z,1.55
2022-10-08T15:19:23.800Z,2.00
2022-10-08T15:21:51.103Z,1.70
2022-10-08T15:24:18.004Z,1.70
2022-10-08T15:26:44.756Z,1.90
2022-10-08T15:29:11.895Z,1.52
2022-10-08T15:31:38.669Z,2.20
2022-10-08T15:34:05.570Z,1.77
2022-10-08T15:36:36.158Z,1.95
2022-10-08T15:39:06.372Z,1.50
2022-10-08T15:41:36.828Z,1.40
2022-10-08T15:44:12.113Z,1.80
2022-10-08T15:46:39.117Z,1.77
2022-10-08T15:49:06.517Z,1.55
2022-10-08T15:51:33.706Z,1.75
2022-10-08T15:54:01.115Z,1.63
2022-10-08T15:56:28.377Z,1.80
2022-10-08T15:58:55.144Z,2.30
2022-10-08T16:01:23.853Z,1.90
2022-10-08T16:03:52.879Z,1.98
2022-10-08T16:06:23.407Z,1.70
2022-10-08T16:08:51.472Z,2.25
2022-10-08T16:11:24.580Z,1.83
2022-10-08T16:13:53.949Z,1.58
2022-10-08T16:16:21.766Z,1.90
2022-10-08T16:18:54.187Z,2.03
2022-10-08T16:21:21.325Z,1.98
2022-10-08T16:23:48.179Z,1.67
2022-10-08T16:26:20.559Z,3.00
2022-10-08T16:28:49.805Z,2.00
2022-10-08T16:31:17.844Z,2.05
2022-10-08T16:33:45.632Z,1.92
2022-10-08T16:36:12.949Z,2.33
2022-10-08T16:38:40.342Z,1.98
2022-10-08T16:41:16.356Z,1.80
2022-10-08T16:43:49.179Z,1.80
2022-10-08T16:46:23.240Z,1.50
2022-10-08T16:48:55.530Z,1.83
2022-10-08T16:51:24.729Z,1.95
2022-10-08T16:53:54.125Z,1.90
2022-10-08T16:56:22.603Z,1.85
2022-10-08T16:58:54.385Z,1.80
2022-10-08T17:01:21.575Z,1.70
2022-10-08T17:03:50.049Z,1.65
2022-10-08T17:06:18.579Z,1.80
2022-10-08T17:08:45.713Z,2.03
2022-10-08T17:11:14.141Z,1.70
2022-10-08T17:13:49.967Z,1.70
2022-10-08T17:16:18.460Z,1.60
2022-10-08T17:18:45.802Z,2.25
2022-10-08T17:21:14.376Z,1.60
2022-10-08T17:23:41.011Z,1.75
2022-10-08T17:26:13.327Z,2.05
2022-10-08T17:28:43.433Z,1.52
2022-10-08T17:31:14.359Z,1.67
2022-10-08T17:33:42.104Z,1.83
2022-10-08T17:36:18.326Z,1.80
2022-10-08T17:38:46.477Z,2.10
2022-10-08T17:41:15.466Z,1.63
2022-10-08T17:43:43.401Z,1.70
2022-10-08T17:46:17.341Z,1.83
2022-10-08T17:48:44.539Z,2.22
2022-10-08T17:51:17.395Z,1.92
2022-10-08T17:53:44.934Z,1.92
2022-10-08T17:56:13.531Z,1.75
2022-10-08T17:58:40.715Z,2.00
2022-10-08T18:01:08.683Z,2.60
2022-10-08T18:03:37.006Z,2.55
2022-10-08T18:06:04.481Z,2.58
2022-10-08T18:08:31.998Z,2.72
2022-10-08T18:11:05.367Z,2.50
2022-10-08T18:13:33.590Z,2.28
2022-10-08T18:16:08.387Z,2.80
2022-10-08T18:18:35.540Z,2.42
2022-10-08T18:21:03.183Z,2.17
2022-10-08T18:23:32.866Z,2.50
2022-10-08T18:26:18.001Z,2.47
2022-10-08T18:28:46.453Z,2.00
2022-10-08T18:31:15.088Z,2.83
2022-10-08T18:33:44.507Z,2.08
2022-10-08T18:36:14.619Z,2.63
2022-10-08T18:38:43.378Z,3.50
2022-10-08T18:41:21.462Z,2.50
2022-10-08T18:43:49.273Z,2.80
2022-10-08T18:46:18.286Z,3.08
2022-10-08T18:48:45.192Z,3.67
2022-10-08T18:51:13.454Z,4.10
2022-10-08T18:53:41.742Z,4.63
2022-10-08T18:56:14.164Z,4.60
2022-10-08T18:58:41.156Z,4.80
2022-10-08T19:01:19.438Z,4.47
2022-10-08T19:03:47.881Z,4.57
2022-10-08T19:06:15.557Z,3.97
2022-10-08T19:08:42.179Z,4.28
2022-10-08T19:11:14.251Z,4.07
2022-10-08T19:13:41.098Z,4.35
2022-10-08T19:16:13.418Z,3.70
2022-10-08T19:18:56.412Z,3.55
2022-10-08T19:21:24.127Z,3.70
2022-10-08T19:23:51.484Z,3.75
2022-10-08T19:26:18.867Z,3.47
2022-10-08T19:28:48.341Z,3.35
2022-10-08T19:31:21.086Z,3.80
2022-10-08T19:34:02.067Z,3.75
2022-10-08T19:36:30.480Z,3.70
2022-10-08T19:39:02.552Z,3.55
2022-10-08T19:41:29.816Z,3.78
2022-10-08T19:43:57.647Z,3.95
2022-10-08T19:46:25.903Z,4.25
2022-10-08T19:48:55.136Z,4.20
2022-10-08T19:51:22.827Z,4.35
2022-10-08T19:53:50.194Z,4.28
2022-10-08T19:56:17.758Z,4.07
2022-10-08T19:58:48.492Z,4.00
2022-10-08T20:01:18.380Z,3.53
2022-10-08T20:03:45.511Z,3.90
2022-10-08T20:06:14.913Z,3.97
2022-10-08T20:08:41.595Z,3.88
2022-10-08T20:11:11.154Z,3.80
2022-10-08T20:13:40.379Z,3.72
2022-10-08T20:16:10.095Z,3.83
2022-10-08T20:18:37.321Z,4.00
2022-10-08T20:21:07.199Z,4.65
2022-10-08T20:23:34.488Z,4.07
2022-10-08T20:26:20.167Z,3.90
2022-10-08T20:28:49.275Z,4.60
2022-10-08T20:31:19.352Z,4.60
2022-10-08T20:33:47.169Z,5.85
2022-10-08T20:36:17.108Z,5.90
2022-10-08T20:38:44.257Z,5.60
2022-10-08T20:41:10.989Z,5.65
2022-10-08T20:43:39.386Z,5.45
2022-10-08T20:46:09.312Z,5.28
2022-10-08T20:48:37.542Z,4.95
2022-10-08T20:51:10.747Z,4.55
2022-10-08T20:53:37.398Z,4.85
2022-10-08T20:56:10.690Z,4.40
2022-10-08T20:58:38.573Z,3.50
2022-10-08T21:01:14.749Z,4.20
2022-10-08T21:03:46.079Z,3.20
2022-10-08T21:06:18.462Z,3.38
2022-10-08T21:11:15.926Z,3.28
2022-10-08T21:13:43.536Z,3.50
2022-10-08T21:16:16.992Z,3.38
2022-10-08T21:18:44.541Z,3.45
2022-10-08T21:21:13.714Z,3.25
2022-10-08T21:23:41.307Z,3.40
2022-10-08T21:26:24.264Z,3.25
2022-10-08T21:28:54.376Z,3.80
2022-10-08T21:31:22.017Z,3.60
2022-10-08T21:33:50.607Z,4.65
2022-10-08T21:36:23.012Z,4.78
2022-10-08T21:38:50.361Z,5.72
2022-10-08T21:41:19.673Z,5.88
2022-10-08T21:43:52.005Z,6.35
2022-10-08T21:46:21.360Z,6.25
2022-10-08T21:48:52.974Z,5.85
2022-10-08T21:51:20.207Z,5.70
2022-10-08T21:53:49.333Z,6.63
2022-10-08T21:56:18.850Z,5.78
2022-10-08T21:58:49.370Z,5.40
2022-10-08T22:01:26.762Z,5.63
2022-10-08T22:04:01.223Z,5.43
2022-10-08T22:06:30.348Z,5.50
2022-10-08T22:08:57.460Z,5.55
2022-10-08T22:11:25.327Z,5.15
2022-10-08T22:13:52.534Z,5.28
2022-10-08T22:16:21.921Z,5.20
2022-10-08T22:18:49.038Z,5.85
2022-10-08T22:21:18.966Z,5.43
2022-10-08T22:23:47.039Z,5.60
2022-10-08T22:26:16.812Z,6.13
2022-10-08T22:28:44.748Z,5.80
2022-10-08T22:31:13.638Z,5.93
2022-10-08T22:33:40.675Z,5.63
2022-10-08T22:36:36.998Z,5.70
2022-10-08T22:39:03.960Z,5.90
2022-10-08T22:41:32.192Z,6.00
2022-10-08T22:43:59.912Z,5.68
2022-10-08T22:46:29.893Z,5.78
2022-10-08T22:49:01.538Z,6.00
2022-10-08T22:51:29.115Z,5.27
2022-10-08T22:53:56.324Z,5.47
2022-10-08T22:56:25.974Z,4.43
2022-10-08T22:58:52.992Z,4.72
2022-10-08T23:01:22.376Z,5.93
2022-10-08T23:03:50.170Z,5.53
2022-10-08T23:06:28.939Z,5.28
2022-10-08T23:09:03.461Z,4.72
2022-10-08T23:11:31.781Z,4.50
2022-10-08T23:13:59.560Z,4.70
2022-10-08T23:16:29.183Z,4.47
2022-10-08T23:18:58.612Z,4.50
2022-10-08T23:21:26.517Z,4.80
2022-10-08T23:23:54.380Z,4.43
2022-10-08T23:26:22.171Z,3.92
2022-10-08T23:28:55.601Z,3.25
2022-10-08T23:31:28.635Z,3.10
2022-10-08T23:33:56.035Z,3.20
2022-10-08T23:36:30.256Z,2.97
2022-10-08T23:38:57.176Z,3.25
2022-10-08T23:41:24.680Z,3.20
2022-10-08T23:43:52.691Z,3.78
2022-10-08T23:46:21.791Z,3.50
2022-10-08T23:48:49.733Z,3.42
2022-10-08T23:51:20.071Z,3.63
2022-10-08T23:53:47.674Z,3.90
2022-10-08T23:56:14.847Z,3.67
2022-10-08T23:58:41.918Z,3.60
